Estación de Peldehue

Ultimos registro cada 15 minutos 70
Estación Fecha / Hora Temperatura Humedad Lluvia Velocidad Dirección Radiación Presion
70 Peldehue 02-05-2026 17:15 24,9 23,8 0 0,5 237 50,6 934,8
69 Peldehue 02-05-2026 17:00 25,5 22,9 0 0,5 248 24,4 934,7
68 Peldehue 02-05-2026 16:45 25,8 23,5 0 1 246 46,9 934,5
67 Peldehue 02-05-2026 16:30 26 25,1 0 1 234 61,9 934,5
66 Peldehue 02-05-2026 16:15 26 24,1 0 1 234 316,9 934,6
65 Peldehue 02-05-2026 16:00 26,2 25,1 0 1 234 360,6 934,7
64 Peldehue 02-05-2026 15:45 26,5 22,9 0 1,5 233 404,4 934,7
63 Peldehue 02-05-2026 15:30 26,9 22,5 0 1 237 446,9 934,8
62 Peldehue 02-05-2026 15:15 26,6 22,4 0 1 236 483,1 934,7
61 Peldehue 02-05-2026 15:00 26,5 21,8 0 1,5 226 519,4 934,5
60 Peldehue 02-05-2026 14:45 26,5 24,4 0 1,5 236 551,9 934,7
59 Peldehue 02-05-2026 14:30 26,5 26 0 1,5 233 576,9 934,4
58 Peldehue 02-05-2026 14:15 26,1 26,1 0 1,5 236 600,6 934,5
57 Peldehue 02-05-2026 14:00 26,2 28,1 0 1 230 621,9 934,5
56 Peldehue 02-05-2026 13:45 25,4 30,4 0 1,5 232 640,6 934,5
55 Peldehue 02-05-2026 13:30 25 33 0 1,5 240 654,4 934,4
54 Peldehue 02-05-2026 13:15 24,4 32,7 0 1,5 234 659,4 934,6
53 Peldehue 02-05-2026 13:00 24,3 33,5 0 1 233 673,1 934,7
52 Peldehue 02-05-2026 12:45 24,4 34,9 0 0,5 223 671,9 934,7
51 Peldehue 02-05-2026 12:30 23,9 36,2 0 1 232 669,4 934,8
50 Peldehue 02-05-2026 12:15 23,2 36,5 0 1 230 665,6 935
49 Peldehue 02-05-2026 12:00 22,8 36,8 0 0,5 232 650,6 935,2
48 Peldehue 02-05-2026 11:45 22 38,8 0 0,5 232 638,1 935,4
47 Peldehue 02-05-2026 11:30 22,1 40,6 0 0,5 223 624,4 935,5
46 Peldehue 02-05-2026 11:15 23,1 35,7 0 0 227 605,6 935,6
45 Peldehue 02-05-2026 11:00 21,5 39,4 0 0 227 579,4 935,6
44 Peldehue 02-05-2026 10:45 19,7 44,5 0 0 227 548,1 935,8
43 Peldehue 02-05-2026 10:30 20 45,8 0 0 227 518,1 935,8
42 Peldehue 02-05-2026 10:15 18,2 52,6 0 0 220 483,1 935,9
41 Peldehue 02-05-2026 10:00 17,8 51,3 0 0 209 448,1 935,9
40 Peldehue 02-05-2026 09:45 16,8 60,5 0 0 209 405,6 935,9
39 Peldehue 02-05-2026 09:30 15,5 67 0 0 208 363,1 936
38 Peldehue 02-05-2026 09:15 15,2 69,2 0 0 204 319,4 935,8
37 Peldehue 02-05-2026 09:00 14,5 69,7 0 0 204 275,6 935,7
36 Peldehue 02-05-2026 08:45 13,6 70,9 0 0 204 233,1 935,6
35 Peldehue 02-05-2026 08:30 11 73 0 0 206 189,4 935,4
34 Peldehue 02-05-2026 08:15 7,9 81,2 0 0 206 150,6 935
33 Peldehue 02-05-2026 08:00 6,8 87,4 0 0 206 14,4 935,2
32 Peldehue 02-05-2026 07:45 5,8 87 0 0 206 10,6 935
31 Peldehue 02-05-2026 07:30 6,1 87,9 0 0 206 6,9 934,9
30 Peldehue 02-05-2026 07:15 5,9 88,8 0 0 206 3,1 935
29 Peldehue 02-05-2026 07:00 5,8 90,7 0 0 206 0,6 935
28 Peldehue 02-05-2026 06:45 6,3 90,4 0 0 206 0,6 935
27 Peldehue 02-05-2026 06:30 6,4 88,6 0 0 206 0,6 934,8
26 Peldehue 02-05-2026 06:15 6,4 88,6 0 0 206 0,6 935,1
25 Peldehue 02-05-2026 06:00 6,2 88,6 0 0 206 0,6 935,4
24 Peldehue 02-05-2026 05:45 6,6 90,2 0 0 206 0,6 935,5
23 Peldehue 02-05-2026 05:30 6,3 88,4 0 0 206 0,6 935,6
22 Peldehue 02-05-2026 05:15 6,9 87,7 0 0 206 0,6 935,8
21 Peldehue 02-05-2026 05:00 6,9 88,6 0 0 206 0,6 935,9
20 Peldehue 02-05-2026 04:45 6,4 89,3 0 0 206 0,6 936,1
19 Peldehue 02-05-2026 04:30 6,4 89,4 0 0 206 0,6 936,2
18 Peldehue 02-05-2026 04:15 6,4 88,9 0 0 206 0,6 936,3
17 Peldehue 02-05-2026 04:00 6,2 88,8 0 0 206 0,6 936,6
16 Peldehue 02-05-2026 03:45 6,5 88,9 0 0 206 0,6 936,6
15 Peldehue 02-05-2026 03:30 6,8 85,7 0 0 206 0,6 936,8
14 Peldehue 02-05-2026 03:15 7,6 85,2 0 0 206 0,6 936,9
13 Peldehue 02-05-2026 03:00 7,5 86,3 0 0 206 0,6 937
12 Peldehue 02-05-2026 02:45 7,2 87,8 0 0 206 0,6 937
11 Peldehue 02-05-2026 02:30 7,2 89,1 0 0 206 0,6 937
10 Peldehue 02-05-2026 02:15 7 87,6 0 0 206 0,6 937,4
9 Peldehue 02-05-2026 02:00 7,4 86,5 0 0 206 0,6 937,3
8 Peldehue 02-05-2026 01:45 7,4 86,9 0 0 206 0,6 937,4
7 Peldehue 02-05-2026 01:30 7,5 87,7 0 0 206 0,6 937,5
6 Peldehue 02-05-2026 01:15 7,9 87,2 0 0 206 0,6 937,7
5 Peldehue 02-05-2026 01:00 8,1 87,7 0 0 206 0,6 938
4 Peldehue 02-05-2026 00:45 8,1 87,4 0 0 206 0,6 938
3 Peldehue 02-05-2026 00:30 8,1 84,7 0 0 206 0,6 938,3
2 Peldehue 02-05-2026 00:15 9,1 85,4 0 0,5 206 0,6 938,6
1 Peldehue 02-05-2026 00:00 8,8 84 0 0 206 0,6 938,7